Flight Track Log - Related Links

Times and Time Zones

All times are in EDT time to prevent confusion due to time zone crossing. See the ARG1298 flight status page for this flight to view local times or setup timezone preferences in your user account.

Time Position Orientation Groundspeed Altitude Reporting Facility
EDT Latitude Longitude Course Direction KTS MPH feet Rate Location/Type
Wed 04:59:33 AM -32.8480 -68.7930 178° South 145 167 3,000  Level FlightAware ADS-B
Wed 04:59:49 AM -32.8580 -68.7910 170° South 159 183 3,600 1,778 Climbing FlightAware ADS-B
Wed 05:00:00 AM -32.8650 -68.7830 136° Southeast 191 220 3,800 1,500 Climbing FlightAware ADS-B
Wed 05:00:09 AM -32.8680 -68.7720 108° East 210 242 4,100 2,769 Climbing FlightAware ADS-B
Wed 05:00:26 AM -32.8690 -68.7530 94° East 218 251 5,000 2,684 Climbing FlightAware ADS-B
Wed 05:00:47 AM -32.8740 -68.7290 104° East 232 267 5,800 2,129 Climbing FlightAware ADS-B
Wed 05:00:57 AM -32.8790 -68.7180 118° Southeast 240 276 6,100 1,714 Climbing FlightAware ADS-B
Wed 05:01:15 AM -32.8900 -68.7030 131° Southeast 256 295 6,600 2,100 Climbing FlightAware ADS-B
Wed 05:01:37 AM -32.9110 -68.6730 130° Southeast 286 329 7,500 2,714 Climbing FlightAware ADS-B
Wed 05:01:57 AM -32.9270 -68.6450 124° Southeast 300 345 8,500 2,351 Climbing FlightAware ADS-B
Wed 05:02:51 AM -32.9630 -68.5810 124° Southeast 294 338 10,400 1,267 Climbing FlightAware ADS-B
Wed 05:03:27 AM -32.9850 -68.5400 123° Southeast 294 338 10,400  Level FlightAware ADS-B
Wed 05:04:03 AM -33.0080 -68.4980 123° Southeast 294 338 10,400 4,645 Level FlightAware ADS-B
Wed 05:05:00 AM -33.0500 -68.3690 111° Southeast 336 387 17,600 4,645 Climbing FlightAware ADS-B
Wed 05:05:36 AM -33.0770 -68.3220 124° Southeast 336 387 17,600 2,786 Level FlightAware ADS-B
Wed 05:06:24 AM -32.9590 -68.3170 North 336 387 21,500 3,853 Climbing FlightAware ADS-B
Wed 05:07:11 AM -32.9200 -68.4800 286° West 356 410 23,700 2,675 Climbing FlightAware ADS-B
Wed 05:07:47 AM -32.9190 -68.5500 271° West 363 418 25,200 2,240 Climbing FlightAware ADS-B
Wed 05:08:26 AM -32.9180 -68.6220 271° West 371 427 26,500 2,100 Climbing FlightAware ADS-B
Wed 05:09:07 AM -32.9170 -68.7060 271° West 365 420 28,000 1,233 Climbing FlightAware ADS-B
Wed 05:09:39 AM -32.9150 -68.7750 272° West 357 411 28,000  Level FlightAware ADS-B
Wed 05:10:10 AM -32.9140 -68.8360 271° West 352 405 28,000  Level FlightAware ADS-B
Wed 05:10:54 AM -32.9120 -68.9150 272° West 354 407 28,000  Level FlightAware ADS-B
Wed 05:11:26 AM -32.9110 -68.9750 271° West 352 405 28,000  Level FlightAware ADS-B
Wed 05:12:00 AM -32.9100 -69.0450 271° West 355 409 28,000  Level FlightAware ADS-B
Wed 05:12:36 AM -32.9080 -69.1080 272° West 351 404 28,000  Level FlightAware ADS-B
Wed 05:13:07 AM -32.9070 -69.1710 271° West 350 403 28,000  Level FlightAware ADS-B
Wed 05:13:50 AM -32.9050 -69.2510 272° West 350 403 28,000  Level FlightAware ADS-B
Wed 05:14:41 AM -32.9030 -69.3520 271° West 350 403 28,000  Level FlightAware ADS-B
Wed 05:15:25 AM -32.9010 -69.4340 272° West 350 403 28,000  Level FlightAware ADS-B
Wed 05:16:01 AM -32.9010 -69.4930 270° West 350 403 28,000  Level FlightAware ADS-B
Wed 05:16:37 AM -32.9000 -69.5520 271° West 350 403 28,000  Level FlightAware ADS-B
Wed 05:17:15 AM -32.8990 -69.6140 271° West 350 403 28,000  Level FlightAware ADS-B
Wed 05:17:51 AM -32.8980 -69.6730 271° West 350 403 28,000  Level FlightAware ADS-B
Wed 05:18:29 AM -32.8970 -69.7360 271° West 350 403 28,000 -902 Level FlightAware ADS-B
Wed 05:21:04 AM -32.8830 -70.0420 273° West 277 319 25,100 -1,229 Descending FlightAware ADS-B
Wed 05:21:54 AM -32.8770 -70.1010 277° West 272 313 23,800 -842 Descending FlightAware ADS-B
Wed 05:22:58 AM -32.8710 -70.1770 275° West 272 313 23,500 -180 Descending FlightAware ADS-B
Wed 05:23:34 AM -32.8670 -70.2220 276° West 272 313 23,500  Level FlightAware ADS-B
Wed 05:24:10 AM -32.8630 -70.2680 276° West 272 313 23,500  Level FlightAware ADS-B
Wed 05:24:44 AM -32.8590 -70.3110 276° West 272 313 23,500  Level FlightAware ADS-B
Wed 05:25:20 AM -32.8550 -70.3560 276° West 272 313 23,500  Level FlightAware ADS-B
Wed 05:25:57 AM -32.8510 -70.4030 276° West 272 313 23,500  Level FlightAware ADS-B
Wed 05:25:57 AM -32.8510 -70.4030 211° Southwest 272 313 23,500  Level FlightAware ADS-B
Wed 05:25:57 AM -32.8510 -70.4030 211° Southwest 272 313 23,500 -1,656 Level FlightAware ADS-B
Wed 05:28:00 AM -32.9781 -70.4923 211° Southwest  Level Estimated
Wed 05:29:00 AM -33.0401 -70.5359 211° Southwest  Level Estimated
Wed 05:30:00 AM -33.1021 -70.5797 211° Southwest  Level Estimated
Wed 05:31:00 AM -33.1641 -70.6234 211° Southwest  Level Estimated
Wed 05:32:00 AM -33.2260 -70.6673 211° Southwest  Level Estimated
Wed 05:33:00 AM -33.2879 -70.7112 211° Southwest  Level Estimated
Wed 05:34:00 AM -33.3499 -70.7551 211° Southwest  Level Estimated
Wed 05:36:00 AM -33.3930 -70.7858 211° Southwest  Level Estimated
Wed 05:36:31 AM -33.2870 -70.7790 216° Southwest 217 250 6,000  Level FlightAware ADS-B
Wed 05:36:40 AM -33.2880 -70.7680 96° East 211 243 6,000  Level FlightAware ADS-B
Wed 05:37:00 AM -33.2860 -70.7590 75° East 209 241 6,000  Level FlightAware ADS-B
Wed 05:37:06 AM -33.2760 -70.7460 47° Northeast 203 234 6,000  Level FlightAware ADS-B
Wed 05:37:15 AM -33.2660 -70.7420 18° North 202 232 6,000  Level FlightAware ADS-B
Wed 05:37:39 AM -33.2420 -70.7410 North 203 234 6,000  Level FlightAware ADS-B
Wed 05:38:12 AM -33.2150 -70.7410 360° North 202 232 6,000  Level FlightAware ADS-B
Wed 05:38:41 AM -33.1890 -70.7410 360° North 203 234 6,000  Level FlightAware ADS-B
Wed 05:39:07 AM -33.1680 -70.7390 North 203 234 6,000 -282 Level FlightAware ADS-B
Wed 05:41:00 AM -33.3016 -70.7668 190° South  Level Estimated
Wed 05:42:56 AM -33.1570 -70.8170 190° South 213 245 4,800  Level FlightAware ADS-B
Wed 05:43:16 AM -33.1760 -70.8160 177° South 210 242 4,800 -103 Level FlightAware ADS-B
Wed 05:43:54 AM -33.2110 -70.8150 179° South 179 206 4,700 -545 Descending FlightAware ADS-B
Wed 05:44:22 AM -33.2370 -70.8140 178° South 178 205 4,200 -873 Descending FlightAware ADS-B
Wed 05:44:49 AM -33.2500 -70.8130 176° South 167 192 3,900 -448 Descending FlightAware ADS-B
Wed 05:45:29 AM -33.2790 -70.8110 177° South 158 182 3,700 -923 Descending FlightAware ADS-B
Wed 05:46:07 AM -33.3120 -70.8100 179° South 148 170 2,700 -938 Descending FlightAware ADS-B
Wed 05:46:33 AM -33.3270 -70.8100 180° South 148 170 2,700  Level FlightAware ADS-B
Wed 05:49:08 AM -33.3970 -70.8070 178° South 130 150 -1,045 Descending FlightAware ADS-B
Wed 05:49:33 AM -33.3920 -70.7920 68° East 130 150  Level FlightAware ADS-B

Login

Don't have an account? Register now (free) for customized features, flight alerts, and more!